createdAt,value
2018-04-06T06:49:05.882Z,7.51
2018-04-06T06:51:40.443Z,7.79
2018-04-06T06:54:15.625Z,8.10
2018-04-06T06:56:50.939Z,8.25
2018-04-06T06:59:23.945Z,8.32
2018-04-06T07:02:02.538Z,8.47
2018-04-06T07:04:37.281Z,8.61
2018-04-06T07:07:12.439Z,8.56
2018-04-06T07:09:50.025Z,8.42
2018-04-06T07:12:24.296Z,8.30
2018-04-06T07:14:57.799Z,8.19
2018-04-06T07:17:35.294Z,8.13
2018-04-06T07:20:12.281Z,8.08
2018-04-06T07:26:19.097Z,7.96
2018-04-06T07:29:13.863Z,7.92
2018-04-06T07:31:49.163Z,7.89
2018-04-06T07:34:22.459Z,7.90
2018-04-06T07:43:46.679Z,8.01
2018-04-06T07:46:29.807Z,8.09
2018-04-06T07:49:17.204Z,8.16
2018-04-06T07:52:05.984Z,8.27
2018-04-06T07:54:41.080Z,8.34
2018-04-06T07:57:16.459Z,8.38
2018-04-06T07:59:50.164Z,8.46
2018-04-06T08:02:23.242Z,8.53
2018-04-06T08:04:58.064Z,8.69
2018-04-06T08:07:39.487Z,8.88
2018-04-06T08:10:16.760Z,9.13
2018-04-06T08:12:51.197Z,9.34
2018-04-06T08:15:25.819Z,9.48
2018-04-06T08:17:58.550Z,9.64
2018-04-06T08:20:31.041Z,9.85
2018-04-06T08:23:09.468Z,10.07
2018-04-06T08:49:50.801Z,11.13
2018-04-06T08:52:31.718Z,11.22
2018-04-06T08:55:04.306Z,11.19
2018-04-06T08:57:37.760Z,11.21
2018-04-06T09:00:18.534Z,11.29
2018-04-06T09:02:54.525Z,11.37
2018-04-06T09:05:29.613Z,11.54
2018-04-06T09:08:04.384Z,11.69
2018-04-06T09:10:36.027Z,11.74
2018-04-06T09:13:10.735Z,11.85
2018-04-06T09:15:43.662Z,12.02
2018-04-06T09:18:22.224Z,12.17
2018-04-06T09:20:52.773Z,12.24
2018-04-06T09:23:26.408Z,12.32
2018-04-06T09:25:56.504Z,12.35
2018-04-06T09:28:30.303Z,12.33
2018-04-06T09:31:09.000Z,12.38
2018-04-06T09:33:54.603Z,12.58
2018-04-06T09:36:23.393Z,12.74
2018-04-06T09:38:55.449Z,12.83
2018-04-06T09:41:26.097Z,12.93
2018-04-06T09:43:56.461Z,12.89
2018-04-06T09:46:26.973Z,12.85
2018-04-06T09:49:11.720Z,12.81
2018-04-06T09:51:41.864Z,12.83
2018-04-06T09:54:12.432Z,12.89
2018-04-06T09:56:43.455Z,13.01
2018-04-06T09:59:14.425Z,13.17
2018-04-06T10:01:52.453Z,13.26
2018-04-06T10:04:24.051Z,13.34
2018-04-06T10:06:53.842Z,13.43
2018-04-06T10:09:24.607Z,13.56
2018-04-06T10:11:57.534Z,13.63
2018-04-06T10:14:29.645Z,13.68
2018-04-06T10:17:20.640Z,13.76
2018-04-06T10:19:56.116Z,13.86
2018-04-06T10:22:31.515Z,14.08
2018-04-06T10:25:03.487Z,14.33
2018-04-06T10:27:36.260Z,14.52
2018-04-06T10:30:09.417Z,14.67
2018-04-06T10:32:39.741Z,14.71
2018-04-06T10:35:08.389Z,14.72
2018-04-06T10:37:37.057Z,14.76
2018-04-06T10:40:07.941Z,14.82
2018-04-06T10:42:51.324Z,14.85
2018-04-06T10:45:28.665Z,14.93
2018-04-06T10:47:59.485Z,14.90
2018-04-06T10:50:30.409Z,14.77
2018-04-06T10:53:03.221Z,14.74
2018-04-06T10:55:34.241Z,14.85
2018-04-06T10:58:04.795Z,14.87
2018-04-06T11:00:35.713Z,14.86
2018-04-06T11:03:06.353Z,14.92
2018-04-06T11:05:42.111Z,14.95
2018-04-06T11:08:18.941Z,15.04
2018-04-06T11:10:58.092Z,15.19
2018-04-06T11:13:31.037Z,15.25
2018-04-06T11:16:01.269Z,15.22
2018-04-06T11:18:33.315Z,15.21
2018-04-06T11:21:04.510Z,15.17
2018-04-06T11:23:48.858Z,15.26
2018-04-06T11:26:20.771Z,15.33
2018-04-06T11:28:50.137Z,15.31
2018-04-06T11:31:23.117Z,15.34
2018-04-06T11:33:55.087Z,15.33
2018-04-06T11:36:26.097Z,15.34
2018-04-06T11:38:59.216Z,15.37
2018-04-06T11:41:30.780Z,15.43
2018-04-06T11:44:00.055Z,15.57
2018-04-06T11:46:31.129Z,15.69
2018-04-06T11:49:01.163Z,15.68
2018-04-06T11:51:41.598Z,15.68
2018-04-06T11:54:10.666Z,15.78
2018-04-06T11:56:46.926Z,15.80
2018-04-06T11:59:21.667Z,15.87
2018-04-06T12:01:56.995Z,15.91
2018-04-06T12:04:27.822Z,15.95
2018-04-06T12:07:00.051Z,16.03
2018-04-06T12:09:33.898Z,16.13
2018-04-06T12:12:06.723Z,16.24
2018-04-06T12:14:37.345Z,16.39
2018-04-06T12:17:07.350Z,16.48
2018-04-06T12:19:44.379Z,16.51
2018-04-06T12:22:16.889Z,16.62
2018-04-06T12:24:50.383Z,16.65
2018-04-06T12:27:21.376Z,16.60
2018-04-06T12:29:55.536Z,16.64
2018-04-06T12:32:24.752Z,16.70
2018-04-06T12:34:56.147Z,16.80
2018-04-06T12:37:28.379Z,16.79
2018-04-06T12:39:58.776Z,16.68
2018-04-06T12:42:27.314Z,16.58
2018-04-06T12:45:05.085Z,16.50
2018-04-06T12:47:36.082Z,16.45
2018-04-06T12:52:49.886Z,16.60
2018-04-06T12:55:20.049Z,16.78
2018-04-06T12:57:48.542Z,16.82
2018-04-06T13:00:18.633Z,16.89
2018-04-06T13:02:47.120Z,16.84
2018-04-06T13:05:17.532Z,16.89
2018-04-06T13:07:48.223Z,16.90
2018-04-06T13:10:21.135Z,16.95
2018-04-06T13:12:53.387Z,16.99
2018-04-06T13:15:25.035Z,17.08
2018-04-06T13:17:54.643Z,17.23
2018-04-06T13:20:24.707Z,17.30
2018-04-06T13:22:55.831Z,17.31
2018-04-06T13:25:28.767Z,17.33
2018-04-06T13:27:59.035Z,17.25
2018-04-06T13:30:29.267Z,17.22
2018-04-06T13:35:42.291Z,17.13
2018-04-06T13:38:12.827Z,17.11
2018-04-06T13:40:50.417Z,17.09
2018-04-06T13:43:21.021Z,17.07
2018-04-06T13:45:54.540Z,17.13
2018-04-06T13:48:26.973Z,17.12
2018-04-06T13:51:05.303Z,17.11
2018-04-06T13:53:39.916Z,17.21
2018-04-06T13:56:10.516Z,17.37
2018-04-06T13:58:39.241Z,17.46
2018-04-06T14:01:10.519Z,17.47
2018-04-06T14:03:40.871Z,17.45
2018-04-06T14:08:52.832Z,17.42
2018-04-06T14:11:29.633Z,17.54
2018-04-06T14:14:01.241Z,17.61
2018-04-06T14:16:31.865Z,17.65
2018-04-06T14:19:02.442Z,17.63
2018-04-06T14:21:32.379Z,17.60
2018-04-06T14:24:02.045Z,17.56
2018-04-06T14:26:37.084Z,17.52
2018-04-06T14:29:06.786Z,17.49
2018-04-06T14:31:41.363Z,17.46
2018-04-06T14:34:13.346Z,17.42
2018-04-06T14:36:44.879Z,17.32
2018-04-06T14:41:55.182Z,17.29
2018-04-06T14:44:26.312Z,17.35
2018-04-06T14:46:56.530Z,17.37
2018-04-06T14:49:27.411Z,17.36
2018-04-06T14:52:04.569Z,17.34
2018-04-06T14:54:33.740Z,17.30
2018-04-06T14:57:08.305Z,17.24
2018-04-06T14:59:39.024Z,17.26
2018-04-06T15:02:13.158Z,17.27
2018-04-06T15:04:44.782Z,17.28
2018-04-06T15:07:14.374Z,17.21
2018-04-06T15:12:25.521Z,17.09
2018-04-06T15:14:55.822Z,17.07
2018-04-06T15:17:26.664Z,17.02
2018-04-06T15:19:58.186Z,17.03
2018-04-06T15:22:26.783Z,17.03
2018-04-06T15:24:58.845Z,17.02
2018-04-06T15:27:29.874Z,17.01
2018-04-06T15:30:00.510Z,17.00
2018-04-06T15:32:31.837Z,16.89
2018-04-06T15:35:04.580Z,16.79
2018-04-06T15:37:37.449Z,16.74
2018-04-06T15:40:10.165Z,16.68
2018-04-06T15:42:39.192Z,16.65
2018-04-06T15:50:28.023Z,16.63
2018-04-06T15:52:57.954Z,16.60
2018-04-06T15:55:29.693Z,16.55
2018-04-06T15:57:58.337Z,16.47
2018-04-06T16:00:28.228Z,16.43
2018-04-06T16:02:58.540Z,16.41
2018-04-06T16:05:30.862Z,16.37
2018-04-06T16:08:03.130Z,16.33
2018-04-06T16:10:33.473Z,16.27
2018-04-06T16:13:05.076Z,16.20
2018-04-06T16:15:36.801Z,16.14
2018-04-06T16:18:16.705Z,16.08
2018-04-06T16:20:45.331Z,16.01
2018-04-06T16:23:21.078Z,15.96
2018-04-06T16:25:53.158Z,15.88
2018-04-06T16:28:27.500Z,15.78
2018-04-06T16:31:00.073Z,15.71
2018-04-06T16:33:29.974Z,15.61
2018-04-06T16:36:02.824Z,15.54
2018-04-06T16:38:35.085Z,15.46
2018-04-06T16:41:07.601Z,15.38
2018-04-06T16:43:38.985Z,15.30
2018-04-06T16:46:09.301Z,15.21
2018-04-06T16:48:38.566Z,15.17
2018-04-06T16:51:16.073Z,15.08
2018-04-06T16:53:49.060Z,15.02
2018-04-06T16:56:23.843Z,14.91
2018-04-06T16:58:59.824Z,14.81
2018-04-06T17:01:35.506Z,14.70
2018-04-06T17:04:17.106Z,14.59
2018-04-06T17:06:52.797Z,14.51
2018-04-06T17:09:25.422Z,14.42
2018-04-06T17:11:58.939Z,14.31
2018-04-06T17:14:38.599Z,14.22
2018-04-06T17:17:10.742Z,14.11
2018-04-06T17:19:47.370Z,14.00
2018-04-06T17:22:20.081Z,13.92
2018-04-06T17:24:53.281Z,13.81
2018-04-06T17:27:26.421Z,13.73
2018-04-06T17:29:59.919Z,13.63
2018-04-06T17:32:34.380Z,13.53
2018-04-06T17:35:07.879Z,13.42
2018-04-06T17:37:47.785Z,13.31
2018-04-06T17:40:29.863Z,13.21
2018-04-06T17:43:03.004Z,13.10
2018-04-06T17:45:36.943Z,13.01
2018-04-06T17:48:09.681Z,12.91
2018-04-06T17:50:42.360Z,12.83
2018-04-06T17:53:17.878Z,12.71
2018-04-06T17:55:52.699Z,12.60
2018-04-06T17:58:28.440Z,12.50
2018-04-06T18:01:06.797Z,12.37
2018-04-06T18:03:42.497Z,12.26
2018-04-06T18:06:20.040Z,12.16
2018-04-06T18:08:57.784Z,12.07
2018-04-06T18:11:32.353Z,11.98
2018-04-06T18:14:05.405Z,11.87
2018-04-06T18:16:43.040Z,11.76
2018-04-06T18:19:19.200Z,11.62
2018-04-06T18:21:53.261Z,11.52
2018-04-06T18:24:29.578Z,11.40
2018-04-06T18:27:03.661Z,11.30
2018-04-06T18:29:35.996Z,11.18
2018-04-06T18:32:10.919Z,11.08
2018-04-06T18:34:47.768Z,10.96
2018-04-06T18:37:25.608Z,10.86
2018-04-06T18:40:06.357Z,10.77
2018-04-06T18:42:41.114Z,10.67
2018-04-06T18:45:17.182Z,10.58
2018-04-06T18:47:50.518Z,10.47
2018-04-06T18:50:25.805Z,10.37
2018-04-06T18:53:00.427Z,10.30
2018-04-06T18:55:34.460Z,10.19
2018-04-06T18:58:09.363Z,10.11
2018-04-06T19:00:42.422Z,10.07
2018-04-06T19:03:16.541Z,10.03
2018-04-06T19:05:52.376Z,9.94
2018-04-06T19:08:29.659Z,9.88
2018-04-06T19:11:02.043Z,9.77
2018-04-06T19:13:36.679Z,9.66
2018-04-06T19:16:14.384Z,9.56
2018-04-06T19:18:52.962Z,9.47
2018-04-06T19:21:30.285Z,9.38
2018-04-06T19:24:05.597Z,9.29
2018-04-06T19:26:39.259Z,9.20
2018-04-06T19:29:15.357Z,9.12
2018-04-06T19:31:50.600Z,9.05
2018-04-06T19:34:26.444Z,9.00
2018-04-06T19:37:02.080Z,8.94
2018-04-06T19:39:36.058Z,8.87
2018-04-06T19:42:12.479Z,8.81
2018-04-06T19:44:47.298Z,8.75
2018-04-06T19:47:24.641Z,8.69
2018-04-06T19:49:57.700Z,8.63
2018-04-06T19:52:32.397Z,8.57
2018-04-06T19:55:08.325Z,8.51
2018-04-06T19:57:42.182Z,8.43
2018-04-06T20:00:19.039Z,8.38
2018-04-06T20:02:52.517Z,8.32
2018-04-06T20:05:27.074Z,8.27
2018-04-06T20:08:00.798Z,8.23
2018-04-06T20:10:34.724Z,8.16
2018-04-06T20:13:11.781Z,8.12
2018-04-06T20:15:45.839Z,8.08
2018-04-06T20:18:29.240Z,8.02
2018-04-06T20:21:04.217Z,7.96
2018-04-06T20:23:39.197Z,7.88
2018-04-06T20:26:14.543Z,7.86
2018-04-06T20:28:48.402Z,7.81
2018-04-06T20:31:23.540Z,7.73
2018-04-06T20:33:58.687Z,7.65
2018-04-06T20:36:32.200Z,7.57
2018-04-06T20:39:05.780Z,7.52
2018-04-06T20:41:40.509Z,7.44
2018-04-06T20:44:16.681Z,7.39
2018-04-06T20:47:00.943Z,7.35
2018-04-06T20:49:42.826Z,7.28
2018-04-06T20:52:17.542Z,7.22
2018-04-06T20:54:49.723Z,7.18
2018-04-06T20:57:25.377Z,7.12
2018-04-06T21:00:02.723Z,7.05
2018-04-06T21:02:35.462Z,7.01
2018-04-06T21:05:12.044Z,6.95
2018-04-06T21:07:43.999Z,6.91
2018-04-06T21:10:28.280Z,6.88
2018-04-06T21:13:08.698Z,6.83
2018-04-06T21:15:40.862Z,6.80
2018-04-06T21:18:15.720Z,6.76
2018-04-06T21:20:56.342Z,6.73
2018-04-06T21:23:32.995Z,6.71
2018-04-06T21:26:07.901Z,6.68
2018-04-06T21:28:42.402Z,6.72
2018-04-06T21:31:14.742Z,6.74
2018-04-06T21:33:46.578Z,6.72
2018-04-06T21:36:20.383Z,6.65
2018-04-06T21:38:53.759Z,6.58
2018-04-06T21:41:31.922Z,6.53
2018-04-06T21:44:04.525Z,6.49
2018-04-06T21:46:39.544Z,6.46
2018-04-06T21:49:17.041Z,6.43
2018-04-06T21:51:50.942Z,6.36
2018-04-06T21:54:25.418Z,6.29
2018-04-06T21:57:01.845Z,6.23
2018-04-06T21:59:35.801Z,6.15
2018-04-06T22:02:10.515Z,6.11
2018-04-06T22:04:46.242Z,6.07
2018-04-06T22:07:21.699Z,6.01
2018-04-06T22:09:55.643Z,5.94
2018-04-06T22:12:30.559Z,5.89
2018-04-06T22:15:06.039Z,5.82
2018-04-06T22:17:40.818Z,5.76
2018-04-06T22:20:14.960Z,5.71
2018-04-06T22:23:03.677Z,5.65
2018-04-06T22:25:40.941Z,5.59
2018-04-06T22:28:13.337Z,5.54
2018-04-06T22:30:48.144Z,5.50
2018-04-06T22:33:25.618Z,5.46
2018-04-06T22:35:59.101Z,5.40
2018-04-06T22:38:32.843Z,5.37
2018-04-06T22:41:06.679Z,5.33
2018-04-06T22:43:40.917Z,5.28
2018-04-06T22:46:14.338Z,5.25
2018-04-06T22:48:48.122Z,5.18
2018-04-06T22:51:22.838Z,5.13
2018-04-06T22:54:00.083Z,5.08
2018-04-06T22:56:34.438Z,5.03
2018-04-06T22:59:10.339Z,4.99
2018-04-06T23:01:44.439Z,4.95
2018-04-06T23:04:18.258Z,4.91
2018-04-06T23:06:52.182Z,4.86
2018-04-06T23:09:25.320Z,4.81
2018-04-06T23:11:59.501Z,4.77
2018-04-06T23:14:35.024Z,4.70
2018-04-06T23:17:07.772Z,4.65
2018-04-06T23:19:48.703Z,4.60
2018-04-06T23:22:24.881Z,4.56
2018-04-06T23:24:56.204Z,4.53
2018-04-06T23:27:29.590Z,4.49
2018-04-06T23:30:11.743Z,4.47
2018-04-06T23:32:44.281Z,4.45
2018-04-06T23:35:24.378Z,4.43
2018-04-06T23:38:01.557Z,4.37
2018-04-06T23:40:36.363Z,4.33
2018-04-06T23:43:09.558Z,4.27
2018-04-06T23:45:43.140Z,4.23
2018-04-06T23:48:16.399Z,4.17
2018-04-06T23:50:50.082Z,4.12
2018-04-06T23:53:24.019Z,4.07
2018-04-06T23:55:59.116Z,4.02
2018-04-06T23:58:32.860Z,3.97
